createdAt,value
2022-10-01T00:00:08.682Z,60.9
2022-10-01T00:01:09.230Z,61
2022-10-01T00:02:08.678Z,60.8
2022-10-01T00:03:08.758Z,61
2022-10-01T00:04:08.665Z,60.9
2022-10-01T00:05:08.676Z,60.8
2022-10-01T00:06:09.377Z,60.9
2022-10-01T00:07:07.728Z,61
2022-10-01T00:08:08.924Z,61.2
2022-10-01T00:09:08.685Z,60.9
2022-10-01T00:10:09.144Z,60.7
2022-10-01T00:11:08.668Z,61
2022-10-01T00:12:09.244Z,61
2022-10-01T00:13:08.701Z,60.7
2022-10-01T00:14:08.987Z,60.6
2022-10-01T00:15:10.695Z,60.8
2022-10-01T00:16:08.865Z,61.2
2022-10-01T00:17:08.675Z,61.3
2022-10-01T00:18:08.893Z,61.3
2022-10-01T00:19:08.671Z,61.4
2022-10-01T00:20:14.157Z,61.5
2022-10-01T00:21:08.678Z,61.5
2022-10-01T00:22:08.680Z,61.5
2022-10-01T00:23:08.677Z,61.6
2022-10-01T00:24:08.855Z,61.7
2022-10-01T00:25:08.670Z,61.7
2022-10-01T00:26:08.665Z,61.7
2022-10-01T00:27:09.133Z,61.7
2022-10-01T00:28:08.122Z,61.6
2022-10-01T00:29:09.438Z,61.5
2022-10-01T00:30:07.754Z,61.8
2022-10-01T00:31:08.731Z,61.8
2022-10-01T00:32:08.718Z,61.8
2022-10-01T00:33:08.684Z,61.7
2022-10-01T00:34:08.676Z,61.7
2022-10-01T00:35:08.829Z,61.7
2022-10-01T00:36:08.836Z,61.4
2022-10-01T00:37:07.823Z,61.4
2022-10-01T00:38:08.992Z,61.7
2022-10-01T00:39:09.261Z,61.7
2022-10-01T00:40:07.768Z,61.7
2022-10-01T00:41:08.668Z,61.8
2022-10-01T00:42:08.679Z,61.9
2022-10-01T00:43:08.685Z,61.9
2022-10-01T00:44:08.696Z,62
2022-10-01T00:45:08.675Z,62
2022-10-01T00:46:08.793Z,62.2
2022-10-01T00:47:09.003Z,62.4
2022-10-01T00:48:08.665Z,62.3
2022-10-01T00:49:09.036Z,62.3
2022-10-01T00:52:07.745Z,62.4
2022-10-01T00:53:08.663Z,62.6
2022-10-01T00:55:09.484Z,62.9
2022-10-01T00:56:08.689Z,63.1
2022-10-01T00:57:08.672Z,63.4
2022-10-01T00:58:08.781Z,63.6
2022-10-01T00:59:08.666Z,64
2022-10-01T01:00:08.685Z,64.7
2022-10-01T01:01:08.796Z,64.7
2022-10-01T01:02:09.512Z,65.2
2022-10-01T01:03:09.023Z,65.5
2022-10-01T01:04:09.240Z,65.9
2022-10-01T01:05:08.669Z,66.3
2022-10-01T01:06:07.744Z,66.6
2022-10-01T01:07:08.448Z,66.9
2022-10-01T01:08:09.040Z,67
2022-10-01T01:09:09.248Z,67.4
2022-10-01T01:10:08.680Z,67.6
2022-10-01T01:11:08.749Z,67.9
2022-10-01T01:12:08.676Z,67.9
2022-10-01T01:13:09.291Z,68.3
2022-10-01T01:14:07.751Z,68.7
2022-10-01T01:15:08.702Z,68.7
2022-10-01T01:16:09.277Z,69.2
2022-10-01T01:17:08.712Z,69.5
2022-10-01T01:18:08.823Z,69.8
2022-10-01T01:19:09.475Z,70
2022-10-01T01:20:09.513Z,70.2
2022-10-01T01:21:09.267Z,70.5
2022-10-01T01:22:08.683Z,70.6
2022-10-01T01:23:08.689Z,70.7
2022-10-01T01:24:09.427Z,71
2022-10-01T01:25:09.249Z,71.3
2022-10-01T01:26:08.693Z,71.5
2022-10-01T01:27:08.695Z,71.8
2022-10-01T01:28:08.707Z,72
2022-10-01T01:29:08.695Z,72.4
2022-10-01T01:30:08.681Z,72.4
2022-10-01T01:31:09.484Z,72.7
2022-10-01T01:32:13.989Z,72.7
2022-10-01T01:33:09.525Z,72.9
2022-10-01T01:34:08.695Z,73
2022-10-01T01:35:09.111Z,73.3
2022-10-01T01:36:08.735Z,73.2
2022-10-01T01:37:07.749Z,73.4
2022-10-01T01:38:08.689Z,73.3
2022-10-01T01:39:08.677Z,73.7
2022-10-01T01:40:08.682Z,73.7
2022-10-01T01:41:09.066Z,73.8
2022-10-01T01:42:08.684Z,74
2022-10-01T01:43:08.941Z,74.2
2022-10-01T01:44:09.118Z,74.1
2022-10-01T01:45:09.249Z,74.3
2022-10-01T01:46:09.073Z,74.4
2022-10-01T01:47:08.685Z,74.6
2022-10-01T01:48:08.680Z,74.7
2022-10-01T01:49:08.670Z,74.8
2022-10-01T01:50:08.677Z,75
2022-10-01T01:51:08.719Z,74.9
2022-10-01T01:52:08.688Z,75.3
2022-10-01T01:53:08.687Z,75.4
2022-10-01T01:54:08.687Z,75.4
2022-10-01T01:55:08.707Z,75.5
2022-10-01T01:56:08.690Z,75.4
2022-10-01T01:57:08.825Z,75.6
2022-10-01T01:58:09.024Z,75.8
2022-10-01T01:59:08.682Z,76
2022-10-01T02:01:09.180Z,76.2
2022-10-01T02:02:09.415Z,76.2
2022-10-01T02:03:08.682Z,76.2
2022-10-01T02:04:08.665Z,76
2022-10-01T02:05:08.673Z,75.8
2022-10-01T02:06:08.876Z,75.8
2022-10-01T02:07:07.989Z,75.9
2022-10-01T02:08:09.237Z,76
2022-10-01T02:10:07.755Z,76.2
2022-10-01T02:11:08.769Z,76.4
2022-10-01T02:12:08.674Z,76.6
2022-10-01T02:13:09.199Z,76.8
2022-10-01T02:14:09.311Z,76.7
2022-10-01T02:15:08.693Z,76.6
2022-10-01T02:16:09.111Z,76.8
2022-10-01T02:17:08.725Z,76.8
2022-10-01T02:18:08.698Z,76.9
2022-10-01T02:19:08.681Z,77
2022-10-01T02:20:08.673Z,76.9
2022-10-01T02:21:07.768Z,76.9
2022-10-01T02:22:09.109Z,77
2022-10-01T02:23:08.684Z,77.2
2022-10-01T02:24:08.688Z,77.1
2022-10-01T02:25:08.693Z,77
2022-10-01T02:26:08.706Z,77.1
2022-10-01T02:27:08.685Z,77
2022-10-01T02:28:08.760Z,76.9
2022-10-01T02:29:09.158Z,77.1
2022-10-01T02:30:08.690Z,77.3
2022-10-01T02:31:08.759Z,77.3
2022-10-01T02:32:07.819Z,77.3
2022-10-01T02:33:08.682Z,77.3
2022-10-01T02:34:12.337Z,77.2
2022-10-01T02:35:09.463Z,77.2
2022-10-01T02:36:09.198Z,77.2
2022-10-01T02:37:07.742Z,77
2022-10-01T02:38:09.292Z,77.2
2022-10-01T02:39:07.771Z,77.3
2022-10-01T02:40:08.699Z,77.2
2022-10-01T02:41:08.671Z,77.5
2022-10-01T02:42:09.172Z,77.4
2022-10-01T02:43:08.715Z,77.3
2022-10-01T02:45:08.690Z,77.3
2022-10-01T02:46:08.753Z,77.3
2022-10-01T02:47:08.726Z,77.4
2022-10-01T02:48:09.167Z,77.4
2022-10-01T02:49:08.698Z,77.7
2022-10-01T02:50:08.670Z,77.6
2022-10-01T02:51:09.105Z,77.6
2022-10-01T02:52:09.015Z,77.6
2022-10-01T02:53:09.218Z,77.8
2022-10-01T02:54:09.172Z,77.8
2022-10-01T02:55:09.110Z,77.8
2022-10-01T02:56:08.914Z,78
2022-10-01T02:57:08.671Z,78
2022-10-01T02:59:07.754Z,78.1
2022-10-01T03:00:08.673Z,78.1
2022-10-01T03:02:09.459Z,78.3
2022-10-01T03:03:08.684Z,78.3
2022-10-01T03:04:09.239Z,78.2
2022-10-01T03:05:08.695Z,78.3
2022-10-01T03:06:08.683Z,78.2
2022-10-01T03:07:07.753Z,78.3
2022-10-01T03:08:09.400Z,78.4
2022-10-01T03:09:08.673Z,78.2
2022-10-01T03:10:08.683Z,78.1
2022-10-01T03:12:08.937Z,78.3
2022-10-01T03:14:08.692Z,78.3
2022-10-01T03:15:08.679Z,78.2
2022-10-01T03:16:08.751Z,78.2
2022-10-01T03:17:08.694Z,78.3
2022-10-01T03:18:09.247Z,78.5
2022-10-01T03:19:09.312Z,78.6
2022-10-01T03:20:08.671Z,78.5
2022-10-01T03:21:08.699Z,78.6
2022-10-01T03:22:08.689Z,78.7
2022-10-01T03:24:08.677Z,78.4
2022-10-01T03:25:08.679Z,78.6
2022-10-01T03:26:09.222Z,78.7
2022-10-01T03:27:09.395Z,78.9
2022-10-01T03:28:09.217Z,78.8
2022-10-01T03:29:09.674Z,78.8
2022-10-01T03:30:08.691Z,78.8
2022-10-01T03:31:08.802Z,78.9
2022-10-01T03:32:09.156Z,78.8
2022-10-01T03:33:08.736Z,78.9
2022-10-01T03:35:07.767Z,79
2022-10-01T03:37:07.746Z,79.1
2022-10-01T03:38:09.482Z,79
2022-10-01T03:39:08.818Z,79.1
2022-10-01T03:40:08.701Z,79
2022-10-01T03:41:08.710Z,79
2022-10-01T03:42:09.273Z,79.2
2022-10-01T03:43:08.689Z,79
2022-10-01T03:44:08.695Z,78.9
2022-10-01T03:45:08.683Z,79
2022-10-01T03:47:08.681Z,79.3
2022-10-01T03:48:08.672Z,79.1
2022-10-01T03:49:08.762Z,79.3
2022-10-01T03:50:08.920Z,79.4
2022-10-01T03:51:09.219Z,79.4
2022-10-01T03:52:08.681Z,79.5
2022-10-01T03:53:08.784Z,79.5
2022-10-01T03:54:08.687Z,79.4
2022-10-01T03:55:09.372Z,79.5
2022-10-01T03:56:08.690Z,79.6
2022-10-01T03:57:08.681Z,79.7
2022-10-01T03:58:08.679Z,79.5
2022-10-01T03:59:08.837Z,79.4
2022-10-01T04:00:08.683Z,79.5
2022-10-01T04:01:08.671Z,79.7
2022-10-01T04:02:08.840Z,79.8
2022-10-01T04:03:08.756Z,79.9
2022-10-01T04:04:08.715Z,79.9
2022-10-01T04:05:08.686Z,80.1
2022-10-01T04:06:08.918Z,80.2
2022-10-01T04:07:08.179Z,80.2
2022-10-01T04:08:08.525Z,80.2
2022-10-01T04:09:09.428Z,80
2022-10-01T04:10:08.681Z,80.1
2022-10-01T04:12:08.692Z,80.2
2022-10-01T04:13:08.682Z,80.2
2022-10-01T04:14:08.704Z,80.2
2022-10-01T04:15:08.688Z,80.3
2022-10-01T04:16:08.740Z,80.4
2022-10-01T04:17:08.675Z,80.4
2022-10-01T04:18:08.890Z,80.3
2022-10-01T04:19:07.770Z,80.4
2022-10-01T04:20:08.696Z,80.3
2022-10-01T04:21:08.758Z,80.3
2022-10-01T04:22:08.699Z,80.4
2022-10-01T04:23:09.574Z,80.5
2022-10-01T04:24:09.107Z,80.5
2022-10-01T04:25:08.687Z,80.5
2022-10-01T04:26:08.697Z,80.5
2022-10-01T04:27:08.680Z,80.6
2022-10-01T04:28:08.736Z,80.5
2022-10-01T04:29:09.127Z,80.5
2022-10-01T04:30:07.800Z,80.5
2022-10-01T04:31:09.572Z,80.5
2022-10-01T04:32:09.246Z,80.5
2022-10-01T04:33:08.693Z,80.4
2022-10-01T04:34:08.689Z,80.5
2022-10-01T04:35:08.764Z,80.5
2022-10-01T04:36:09.423Z,80.6
2022-10-01T04:37:08.449Z,80.7
2022-10-01T04:38:09.059Z,80.8
2022-10-01T04:39:08.982Z,80.8
2022-10-01T04:41:08.675Z,81
2022-10-01T04:42:08.698Z,80.9
2022-10-01T04:43:09.210Z,81
2022-10-01T04:44:08.688Z,80.8
2022-10-01T04:45:08.687Z,80.8
2022-10-01T04:46:08.703Z,80.8
2022-10-01T04:47:08.784Z,80.9
2022-10-01T04:48:08.682Z,80.7
2022-10-01T04:49:08.691Z,80.6
2022-10-01T04:50:09.419Z,80.6
2022-10-01T04:51:07.763Z,80.5
2022-10-01T04:53:08.838Z,80.7
2022-10-01T04:54:08.690Z,80.5
2022-10-01T04:55:08.679Z,80.6
2022-10-01T04:56:08.691Z,80.6
2022-10-01T04:57:08.695Z,80.7
2022-10-01T04:58:09.086Z,80.8
2022-10-01T04:59:08.689Z,80.8
2022-10-01T05:00:08.957Z,81
2022-10-01T05:01:09.466Z,81
2022-10-01T05:02:09.635Z,80.9
2022-10-01T05:03:07.762Z,80.9
2022-10-01T05:05:08.674Z,80.9
2022-10-01T05:06:08.964Z,80.9
2022-10-01T05:07:08.224Z,81.1
2022-10-01T05:08:08.706Z,80.9
2022-10-01T05:09:08.995Z,80.9
2022-10-01T05:10:08.695Z,81
2022-10-01T05:11:08.704Z,80.9
2022-10-01T05:12:08.693Z,81
2022-10-01T05:13:07.822Z,80.9
2022-10-01T05:14:08.733Z,80.9
2022-10-01T05:15:08.704Z,80.8
2022-10-01T05:16:08.827Z,80.7
2022-10-01T05:17:08.688Z,80.8
2022-10-01T05:18:08.853Z,80.9
2022-10-01T05:19:08.694Z,81
2022-10-01T05:20:09.007Z,81.1
2022-10-01T05:21:08.783Z,81.2
2022-10-01T05:22:08.691Z,81.1
2022-10-01T05:23:09.573Z,81.2
2022-10-01T05:24:07.771Z,81.3
2022-10-01T05:26:08.690Z,81.1
2022-10-01T05:27:08.702Z,80.8
2022-10-01T05:28:07.833Z,80.8
2022-10-01T05:29:09.486Z,80.9
2022-10-01T05:30:08.677Z,80.8
2022-10-01T05:31:09.480Z,80.7
2022-10-01T05:32:08.705Z,80.8
2022-10-01T05:33:08.714Z,80.9
2022-10-01T05:34:09.114Z,80.8
2022-10-01T05:37:07.907Z,80.7
2022-10-01T05:38:09.231Z,80.7
2022-10-01T05:39:08.923Z,80.7
2022-10-01T05:40:08.686Z,80.8
2022-10-01T05:41:08.681Z,80.8
2022-10-01T05:42:08.694Z,80.6
2022-10-01T05:43:09.475Z,80.5
2022-10-01T05:44:09.240Z,80.7
2022-10-01T05:45:08.692Z,80.9
2022-10-01T05:47:08.693Z,80.9
2022-10-01T05:48:08.880Z,80.6
2022-10-01T05:49:08.689Z,80.8
2022-10-01T05:50:08.723Z,80.8
2022-10-01T05:51:09.059Z,80.8
2022-10-01T05:52:09.200Z,80.8
2022-10-01T05:53:09.242Z,80.9
2022-10-01T05:54:09.141Z,80.9
2022-10-01T05:55:08.699Z,80.8
2022-10-01T05:56:09.310Z,80.7
2022-10-01T05:57:07.771Z,80.6
2022-10-01T05:59:07.787Z,80.6
2022-10-01T06:00:08.691Z,80.4
2022-10-01T06:01:08.713Z,80.3
2022-10-01T06:02:08.935Z,80.2
2022-10-01T06:03:08.901Z,80.1
2022-10-01T06:04:08.874Z,80
2022-10-01T06:05:08.697Z,80
2022-10-01T06:06:09.505Z,80.2
2022-10-01T06:07:07.766Z,80.2
2022-10-01T06:08:08.704Z,80.3
2022-10-01T06:10:07.825Z,80.4
2022-10-01T06:11:07.758Z,80.3
2022-10-01T06:12:09.374Z,80.4
2022-10-01T06:13:08.727Z,80.4
2022-10-01T06:14:08.693Z,80.5
2022-10-01T06:15:08.687Z,80.3
2022-10-01T06:16:08.769Z,80.2
2022-10-01T06:17:09.627Z,80.1
2022-10-01T06:18:08.697Z,79.9
2022-10-01T06:19:08.949Z,80
2022-10-01T06:20:09.081Z,80.1
2022-10-01T06:22:07.766Z,80
2022-10-01T06:23:09.029Z,79.9
2022-10-01T06:24:08.696Z,80
2022-10-01T06:25:09.525Z,80.3
2022-10-01T06:26:08.695Z,80.2
2022-10-01T06:27:09.393Z,80.3
2022-10-01T06:28:08.789Z,80
2022-10-01T06:29:09.487Z,79.8
2022-10-01T06:30:08.690Z,79.8
2022-10-01T06:31:08.683Z,79.8
2022-10-01T06:32:09.222Z,79.9
2022-10-01T06:33:07.769Z,79.8
2022-10-01T06:34:08.694Z,80
2022-10-01T06:35:08.979Z,80
2022-10-01T06:36:08.704Z,80
2022-10-01T06:37:08.084Z,80.1
2022-10-01T06:38:09.624Z,80.3
2022-10-01T06:39:09.128Z,80.3
2022-10-01T06:40:08.894Z,80.1
2022-10-01T06:41:08.687Z,80.2
2022-10-01T06:42:08.691Z,79.9
2022-10-01T06:44:08.772Z,80.1
2022-10-01T06:45:09.178Z,80.2
2022-10-01T06:46:08.811Z,80.3
2022-10-01T06:47:08.693Z,80.3
2022-10-01T06:48:09.595Z,80.3
2022-10-01T06:49:08.692Z,80.3
2022-10-01T06:50:08.793Z,80.3
2022-10-01T06:51:09.234Z,80.3
2022-10-01T06:52:09.336Z,80.4
2022-10-01T06:53:09.082Z,80.4
2022-10-01T06:54:09.079Z,80.3
2022-10-01T06:55:11.140Z,80.2
2022-10-01T06:56:08.760Z,80
2022-10-01T06:57:08.686Z,80.1
2022-10-01T06:58:08.697Z,80
2022-10-01T06:59:08.693Z,80.1
2022-10-01T07:00:08.701Z,80
2022-10-01T07:01:08.833Z,80
2022-10-01T07:02:09.445Z,80.1
2022-10-01T07:03:08.706Z,80.1
2022-10-01T07:04:07.779Z,80.2
2022-10-01T07:07:07.826Z,80.2
2022-10-01T07:08:09.432Z,80.1
2022-10-01T07:09:08.749Z,80
2022-10-01T07:10:08.696Z,79.9
2022-10-01T07:11:08.688Z,79.9
2022-10-01T07:12:08.706Z,79.9
2022-10-01T07:13:08.921Z,79.7
2022-10-01T07:14:08.705Z,79.9
2022-10-01T07:15:08.712Z,80
2022-10-01T07:16:08.715Z,80.1
2022-10-01T07:17:09.292Z,80
2022-10-01T07:18:08.693Z,80.1
2022-10-01T07:19:08.690Z,80.2
2022-10-01T07:20:09.281Z,80
2022-10-01T07:21:09.474Z,79.9
2022-10-01T07:22:09.075Z,80.1
2022-10-01T07:23:08.704Z,80
2022-10-01T07:24:08.696Z,79.7
2022-10-01T07:25:09.600Z,80
2022-10-01T07:26:09.195Z,80
2022-10-01T07:27:08.731Z,79.7
2022-10-01T07:28:08.749Z,79.8
2022-10-01T07:29:08.693Z,79.9
2022-10-01T07:30:08.704Z,80.1
2022-10-01T07:31:08.796Z,80.1
2022-10-01T07:32:08.784Z,80.1
2022-10-01T07:33:08.687Z,80.1
2022-10-01T07:34:09.224Z,80.2
2022-10-01T07:35:08.694Z,80.1
2022-10-01T07:36:08.951Z,80.2
2022-10-01T07:37:07.793Z,80
2022-10-01T07:39:08.819Z,80.1
2022-10-01T07:40:08.699Z,80.2
2022-10-01T07:41:08.829Z,80.2
2022-10-01T07:42:08.720Z,80.4
2022-10-01T07:43:08.700Z,80.4
2022-10-01T07:44:08.701Z,80.4
2022-10-01T07:45:08.716Z,80.3
2022-10-01T07:46:09.335Z,80.4
2022-10-01T07:47:08.844Z,80.5
2022-10-01T07:48:08.699Z,80.4
2022-10-01T07:49:08.692Z,80.4
2022-10-01T07:50:09.468Z,80.4
2022-10-01T07:51:08.767Z,80.3
2022-10-01T07:52:13.146Z,80.2
2022-10-01T07:53:09.485Z,80.3
2022-10-01T07:54:08.720Z,80.4
2022-10-01T07:55:08.702Z,80.3
2022-10-01T07:56:08.696Z,80
2022-10-01T07:57:09.157Z,80.2
2022-10-01T07:58:07.791Z,80.3
2022-10-01T07:59:07.778Z,80.2
2022-10-01T08:00:07.793Z,80.2
2022-10-01T08:01:09.098Z,80.1
2022-10-01T08:02:09.164Z,79.9
2022-10-01T08:03:09.168Z,80
2022-10-01T08:04:08.720Z,80.1
2022-10-01T08:05:08.799Z,80.2
2022-10-01T08:06:09.421Z,80
2022-10-01T08:07:08.510Z,80
2022-10-01T08:08:09.273Z,80.1
2022-10-01T08:09:08.710Z,80
2022-10-01T08:11:07.785Z,80.2
2022-10-01T08:12:08.704Z,80.2
2022-10-01T08:13:08.967Z,80.1
2022-10-01T08:14:08.717Z,79.9
2022-10-01T08:15:09.602Z,79.9
2022-10-01T08:16:09.451Z,80
2022-10-01T08:17:09.186Z,80.1
2022-10-01T08:18:08.695Z,80
2022-10-01T08:19:08.901Z,80.1
2022-10-01T08:20:08.707Z,80.1
2022-10-01T08:21:08.716Z,79.9
2022-10-01T08:22:09.024Z,79.6
2022-10-01T08:23:08.709Z,79.5
2022-10-01T08:24:08.701Z,79.2
2022-10-01T08:25:08.788Z,79.7
2022-10-01T08:26:08.703Z,79.5
2022-10-01T08:27:08.716Z,79.4
2022-10-01T08:28:08.772Z,79.3
2022-10-01T08:29:10.051Z,79.4
2022-10-01T08:30:08.711Z,79.2
2022-10-01T08:31:08.898Z,78.9
2022-10-01T08:34:08.706Z,78.4
2022-10-01T08:35:08.697Z,78.6
2022-10-01T08:36:08.701Z,78.5
2022-10-01T08:37:07.790Z,78.4
2022-10-01T08:38:08.723Z,78.2
2022-10-01T08:39:08.719Z,77.9
2022-10-01T08:40:08.717Z,77.7
2022-10-01T08:41:08.703Z,77.7
2022-10-01T08:42:09.532Z,78
2022-10-01T08:45:08.728Z,78.2
2022-10-01T08:46:09.644Z,78.1
2022-10-01T08:47:08.723Z,77.8
2022-10-01T08:48:08.715Z,77.8
2022-10-01T08:49:08.716Z,77.7
2022-10-01T08:50:08.706Z,77.8
2022-10-01T08:51:08.709Z,78.2
2022-10-01T08:52:08.711Z,77.9
2022-10-01T08:53:08.711Z,77.8
2022-10-01T08:54:08.716Z,77.9
2022-10-01T08:55:07.791Z,77.5
2022-10-01T08:56:07.786Z,77.2
2022-10-01T08:57:08.722Z,77.4
2022-10-01T08:58:09.365Z,77.5
2022-10-01T08:59:08.946Z,77.7
2022-10-01T09:00:08.738Z,77.5
2022-10-01T09:01:08.769Z,77.6
2022-10-01T09:02:09.444Z,77.4
2022-10-01T09:03:09.330Z,77.4
2022-10-01T09:04:09.246Z,77.2
2022-10-01T09:05:15.435Z,77.2
2022-10-01T09:06:15.283Z,77.2
2022-10-01T09:07:16.038Z,76.9
2022-10-01T09:08:22.267Z,76.8
2022-10-01T09:10:09.233Z,76.7
2022-10-01T09:11:09.592Z,76.7
2022-10-01T09:12:08.704Z,76.7
2022-10-01T09:13:08.765Z,76.7
2022-10-01T09:14:09.393Z,76.6
2022-10-01T09:15:08.713Z,77.1
2022-10-01T09:16:08.903Z,77.4
2022-10-01T09:17:08.879Z,77.4
2022-10-01T09:18:08.713Z,77.4
2022-10-01T09:19:09.432Z,77.3
2022-10-01T09:21:09.368Z,77
2022-10-01T09:22:08.698Z,77.1
2022-10-01T09:23:08.867Z,76.8
2022-10-01T09:24:08.843Z,76.8
2022-10-01T09:25:09.824Z,76.8
2022-10-01T09:26:09.086Z,76.5
2022-10-01T09:27:08.871Z,77
2022-10-01T09:28:09.320Z,77.2
2022-10-01T09:29:08.734Z,77.6
2022-10-01T09:30:08.706Z,77.6
2022-10-01T09:31:08.776Z,77.4
2022-10-01T09:32:08.789Z,77.2
2022-10-01T09:33:09.499Z,76.9
2022-10-01T09:34:08.711Z,76.9
2022-10-01T09:35:09.495Z,76.8
2022-10-01T09:36:08.719Z,76.7
2022-10-01T09:37:07.796Z,76.8
2022-10-01T09:38:08.833Z,76.7
2022-10-01T09:39:08.732Z,77
2022-10-01T09:40:08.721Z,77.1
2022-10-01T09:42:09.249Z,77.3
2022-10-01T09:43:09.480Z,77.4
2022-10-01T09:44:08.718Z,77.3
2022-10-01T09:45:08.705Z,77.9
2022-10-01T09:46:09.409Z,77.6
2022-10-01T09:47:08.714Z,77.4
2022-10-01T09:48:08.715Z,77.1
2022-10-01T09:49:09.640Z,77.2
2022-10-01T09:50:08.712Z,77.2
2022-10-01T09:51:08.729Z,77.2
2022-10-01T09:53:09.142Z,77.8
2022-10-01T09:54:09.225Z,77.9
2022-10-01T09:55:08.714Z,78
2022-10-01T09:56:09.191Z,77.7
2022-10-01T09:57:08.714Z,77.6
2022-10-01T09:58:08.724Z,77.3
2022-10-01T09:59:08.725Z,77.6
2022-10-01T10:00:08.716Z,77.3
2022-10-01T10:01:08.713Z,76.8
2022-10-01T10:02:09.379Z,77
2022-10-01T10:03:09.590Z,77.3
2022-10-01T10:04:08.791Z,77.2
2022-10-01T10:05:08.886Z,77.4
2022-10-01T10:06:08.789Z,77.5
2022-10-01T10:07:07.792Z,77.7
2022-10-01T10:08:08.722Z,77.4
2022-10-01T10:09:08.735Z,77.5
2022-10-01T10:10:08.819Z,77.5
2022-10-01T10:11:08.794Z,78.1
2022-10-01T10:12:08.722Z,78.2
2022-10-01T10:14:08.716Z,78.8
2022-10-01T10:15:08.726Z,78.3
2022-10-01T10:16:09.754Z,78
2022-10-01T10:17:09.395Z,78
2022-10-01T10:18:08.728Z,77.7
2022-10-01T10:19:08.727Z,77.1
2022-10-01T10:20:08.906Z,76.8
2022-10-01T10:21:09.390Z,76.1
2022-10-01T10:22:08.720Z,75.9
2022-10-01T10:23:09.308Z,75.4
2022-10-01T10:26:07.798Z,75
2022-10-01T10:27:09.185Z,74.8
2022-10-01T10:28:08.537Z,74.9
2022-10-01T10:30:09.282Z,74.7
2022-10-01T10:31:08.778Z,74.5
2022-10-01T10:32:09.391Z,74.8
2022-10-01T10:33:09.198Z,74.9
2022-10-01T10:34:08.738Z,75.2
2022-10-01T10:35:07.822Z,75.3
2022-10-01T10:37:08.509Z,74.6
2022-10-01T10:38:08.941Z,74.6
2022-10-01T10:39:09.090Z,74.6
2022-10-01T10:40:08.731Z,74.7
2022-10-01T10:41:08.994Z,74.6
2022-10-01T10:42:09.462Z,74.5
2022-10-01T10:43:08.732Z,74.5
2022-10-01T10:44:08.793Z,74.5
2022-10-01T10:45:08.725Z,74.5
2022-10-01T10:47:08.729Z,74.7
2022-10-01T10:48:08.879Z,74.7
2022-10-01T10:49:08.724Z,74.6
2022-10-01T10:50:09.157Z,73.9
2022-10-01T10:51:08.794Z,73.6
2022-10-01T10:52:08.731Z,74.2
2022-10-01T10:53:09.029Z,73.9
2022-10-01T10:54:09.456Z,73.7
2022-10-01T10:55:08.731Z,73.8
2022-10-01T10:56:08.725Z,74
2022-10-01T10:57:09.033Z,73.7
2022-10-01T10:58:08.743Z,74
2022-10-01T10:59:08.734Z,73.8
2022-10-01T11:01:09.150Z,73
2022-10-01T11:02:08.926Z,72.9
2022-10-01T11:03:08.737Z,72.2
2022-10-01T11:04:09.354Z,72.4
2022-10-01T11:05:08.734Z,72.1
2022-10-01T11:06:08.729Z,71.9
2022-10-01T11:07:07.809Z,72.7
2022-10-01T11:08:08.734Z,73
2022-10-01T11:11:08.730Z,73.2
2022-10-01T11:12:08.833Z,72.5
2022-10-01T11:13:08.864Z,72
2022-10-01T11:14:09.396Z,72.2
2022-10-01T11:15:09.205Z,71.4
2022-10-01T11:16:08.845Z,71.5
2022-10-01T11:17:08.736Z,72
2022-10-01T11:18:09.173Z,71.8
2022-10-01T11:19:08.747Z,72.2
2022-10-01T11:20:09.485Z,71.8
2022-10-01T11:22:08.742Z,71.9
2022-10-01T11:23:09.445Z,72.5
2022-10-01T11:24:09.086Z,72.5
2022-10-01T11:25:09.467Z,72.2
2022-10-01T11:26:09.357Z,72.7
2022-10-01T11:27:09.725Z,73
2022-10-01T11:28:08.944Z,72.6
2022-10-01T11:29:08.737Z,72.9
2022-10-01T11:30:08.745Z,73
2022-10-01T11:31:09.371Z,73
2022-10-01T11:32:07.821Z,73.2
2022-10-01T11:33:08.737Z,73
2022-10-01T11:34:09.326Z,73.2
2022-10-01T11:35:08.770Z,73.6
2022-10-01T11:36:09.489Z,73.9
2022-10-01T11:37:08.280Z,74
2022-10-01T11:38:08.743Z,74.1
2022-10-01T11:39:09.683Z,74
2022-10-01T11:40:08.752Z,74.4
2022-10-01T11:41:09.326Z,74.6
2022-10-01T11:43:07.819Z,74.8
2022-10-01T11:44:07.811Z,75.2
2022-10-01T11:45:07.799Z,75
2022-10-01T11:46:08.995Z,74.5
2022-10-01T11:47:09.040Z,74.9
2022-10-01T11:48:08.741Z,75.6
2022-10-01T11:49:08.784Z,76
2022-10-01T11:50:09.003Z,76.3
2022-10-01T11:51:09.184Z,76.2
2022-10-01T11:52:08.756Z,76.5
2022-10-01T11:53:08.993Z,76.9
2022-10-01T11:54:09.658Z,76.8
2022-10-01T11:55:08.736Z,76.7
2022-10-01T11:56:08.878Z,76.5
2022-10-01T11:57:08.731Z,76.6
2022-10-01T11:58:08.733Z,76
2022-10-01T11:59:09.001Z,76.1
2022-10-01T12:00:09.390Z,76.1
2022-10-01T12:01:08.732Z,76.5
2022-10-01T12:02:08.818Z,76.8
2022-10-01T12:03:08.890Z,76.6
2022-10-01T12:04:08.741Z,76.5
2022-10-01T12:06:07.825Z,75.6
2022-10-01T12:09:09.507Z,75.6
2022-10-01T12:10:08.748Z,75.7
2022-10-01T12:11:08.734Z,76
2022-10-01T12:12:08.775Z,76.1
2022-10-01T12:13:08.739Z,76.4
2022-10-01T12:14:08.742Z,75
2022-10-01T12:15:08.749Z,74.1
2022-10-01T12:16:08.856Z,74.3
2022-10-01T12:17:09.330Z,74.8
2022-10-01T12:18:09.475Z,75.2
2022-10-01T12:20:09.371Z,76.1
2022-10-01T12:21:08.753Z,76
2022-10-01T12:22:08.762Z,76
2022-10-01T12:23:08.745Z,76.3
2022-10-01T12:24:08.961Z,76.2
2022-10-01T12:25:08.736Z,76
2022-10-01T12:26:08.785Z,76.1
2022-10-01T12:27:08.740Z,75.9
2022-10-01T12:28:08.837Z,75.9
2022-10-01T12:29:08.534Z,75.6
2022-10-01T12:30:08.844Z,75.3
2022-10-01T12:31:08.785Z,74.9
2022-10-01T12:32:09.714Z,75
2022-10-01T12:33:08.800Z,74.8
2022-10-01T12:34:09.386Z,74.7
2022-10-01T12:35:09.323Z,75.1
2022-10-01T12:37:08.690Z,75.8
2022-10-01T12:38:08.744Z,75.1
2022-10-01T12:39:08.757Z,75.2
2022-10-01T12:41:08.737Z,75.8
2022-10-01T12:42:09.155Z,76.2
2022-10-01T12:43:08.740Z,75.9
2022-10-01T12:44:09.580Z,76.5
2022-10-01T12:45:08.821Z,76.4
2022-10-01T12:46:08.809Z,77.2
2022-10-01T12:47:09.440Z,77.2
2022-10-01T12:48:08.733Z,77.5
2022-10-01T12:49:08.787Z,78.1
2022-10-01T12:50:08.777Z,78.4
2022-10-01T12:51:07.835Z,78.6
2022-10-01T12:52:08.738Z,78.7
2022-10-01T12:53:08.811Z,78.5
2022-10-01T12:54:13.253Z,78.3
2022-10-01T12:55:08.985Z,78.1
2022-10-01T12:56:08.749Z,78.4
2022-10-01T12:57:08.750Z,78.9
2022-10-01T12:58:07.824Z,79
2022-10-01T12:59:09.458Z,78.8
2022-10-01T13:00:08.847Z,78.9
2022-10-01T13:02:08.879Z,78.8
2022-10-01T13:03:08.736Z,79
2022-10-01T13:04:08.782Z,78.9
2022-10-01T13:05:09.119Z,78.9
2022-10-01T13:06:08.755Z,78.1
2022-10-01T13:07:08.282Z,77.2
2022-10-01T13:08:09.144Z,77
2022-10-01T13:09:09.326Z,76.9
2022-10-01T13:10:08.751Z,76.4
2022-10-01T13:11:08.742Z,76.3
2022-10-01T13:13:09.227Z,75.5
2022-10-01T13:14:08.817Z,75.8
2022-10-01T13:15:08.750Z,75.6
2022-10-01T13:16:08.839Z,75.6
2022-10-01T13:17:08.753Z,75.4
2022-10-01T13:18:08.900Z,75.3
2022-10-01T13:19:09.037Z,75.2
2022-10-01T13:20:09.317Z,75
2022-10-01T13:21:08.969Z,75.3
2022-10-01T13:22:08.755Z,75.2
2022-10-01T13:23:08.757Z,75.1
2022-10-01T13:24:07.845Z,74.7
2022-10-01T13:26:08.749Z,75
2022-10-01T13:27:08.751Z,75
2022-10-01T13:28:09.510Z,74.8
2022-10-01T13:29:08.758Z,74.8
2022-10-01T13:30:08.741Z,74.6
2022-10-01T13:31:09.669Z,74.2
2022-10-01T13:32:08.983Z,73.8
2022-10-01T13:33:09.364Z,74.1
2022-10-01T13:34:08.743Z,73.9
2022-10-01T13:35:08.763Z,73.9
2022-10-01T13:36:08.735Z,73.8
2022-10-01T13:37:07.828Z,74.3
2022-10-01T13:38:08.957Z,74.7
2022-10-01T13:39:09.652Z,75
2022-10-01T13:40:08.764Z,74.8
2022-10-01T13:41:08.798Z,74.7
2022-10-01T13:42:09.145Z,74.9
2022-10-01T13:43:09.450Z,75
2022-10-01T13:44:07.820Z,74.9
2022-10-01T13:45:07.837Z,75.3
2022-10-01T13:46:08.916Z,75.6
2022-10-01T13:47:08.756Z,75.9
2022-10-01T13:49:09.026Z,75.9
2022-10-01T13:50:08.756Z,76.2
2022-10-01T13:51:08.754Z,75.7
2022-10-01T13:52:09.728Z,75.8
2022-10-01T13:53:08.768Z,75.7
2022-10-01T13:54:08.894Z,75.5
2022-10-01T13:55:08.753Z,75.5
2022-10-01T13:57:09.221Z,74.8
2022-10-01T13:58:08.755Z,74.6
2022-10-01T13:59:09.120Z,75
2022-10-01T14:00:09.367Z,75.2
2022-10-01T14:01:13.891Z,74.7
2022-10-01T14:02:08.983Z,74.5
2022-10-01T14:03:08.804Z,74.3
2022-10-01T14:04:08.746Z,73.8
2022-10-01T14:05:08.839Z,74
2022-10-01T14:06:07.840Z,74.3
2022-10-01T14:07:14.411Z,74.7
2022-10-01T14:08:16.091Z,73.9
2022-10-01T14:09:15.333Z,73.8
2022-10-01T14:10:08.776Z,73.2
2022-10-01T14:11:09.147Z,72.8
2022-10-01T14:12:08.767Z,72.5
2022-10-01T14:13:09.123Z,72.6
2022-10-01T14:14:08.873Z,72.6
2022-10-01T14:16:08.835Z,72.7
2022-10-01T14:17:08.770Z,72.3
2022-10-01T14:18:09.424Z,72.4
2022-10-01T14:19:08.761Z,72.3
2022-10-01T14:22:09.363Z,72.3
2022-10-01T14:23:08.760Z,72.1
2022-10-01T14:24:08.837Z,71.7
2022-10-01T14:25:08.755Z,71.4
2022-10-01T14:26:08.766Z,71.5
2022-10-01T14:27:09.053Z,71.8
2022-10-01T14:28:08.790Z,72.4